sensor_id;sensor_type;location;lat;lon;timestamp;pressure;altitude;pressure_sealevel;temperature;humidity
76827;BME280;65788;52.284;20.890;2023-06-14T00:01:58;100578.52;;;23.07;40.34
76827;BME280;65788;52.284;20.890;2023-06-14T00:04:25;100574.52;;;23.05;40.42
76827;BME280;65788;52.284;20.890;2023-06-14T00:06:52;100573.67;;;23.02;40.56
76827;BME280;65788;52.284;20.890;2023-06-14T00:09:19;100569.56;;;22.98;40.64
76827;BME280;65788;52.284;20.890;2023-06-14T00:11:45;100575.92;;;22.96;40.70
76827;BME280;65788;52.284;20.890;2023-06-14T00:14:12;100566.92;;;22.95;40.76
76827;BME280;65788;52.284;20.890;2023-06-14T00:16:39;100570.33;;;22.93;40.77
76827;BME280;65788;52.284;20.890;2023-06-14T00:19:09;100566.98;;;22.93;40.81
76827;BME280;65788;52.284;20.890;2023-06-14T00:21:37;100563.91;;;22.90;40.79
76827;BME280;65788;52.284;20.890;2023-06-14T00:24:04;100562.17;;;22.88;40.86
76827;BME280;65788;52.284;20.890;2023-06-14T00:26:32;100559.81;;;22.85;40.85
76827;BME280;65788;52.284;20.890;2023-06-14T00:28:58;100558.02;;;22.84;40.85
76827;BME280;65788;52.284;20.890;2023-06-14T00:31:25;100561.54;;;22.85;40.88
76827;BME280;65788;52.284;20.890;2023-06-14T00:33:52;100558.88;;;22.83;40.92
76827;BME280;65788;52.284;20.890;2023-06-14T00:36:18;100558.14;;;22.83;40.80
76827;BME280;65788;52.284;20.890;2023-06-14T00:38:45;100556.58;;;22.81;40.91
76827;BME280;65788;52.284;20.890;2023-06-14T00:41:12;100553.18;;;22.79;40.98
76827;BME280;65788;52.284;20.890;2023-06-14T00:43:38;100550.70;;;22.79;40.90
76827;BME280;65788;52.284;20.890;2023-06-14T00:46:05;100551.77;;;22.78;40.85
76827;BME280;65788;52.284;20.890;2023-06-14T00:48:32;100551.10;;;22.78;40.82
76827;BME280;65788;52.284;20.890;2023-06-14T00:51:00;100552.58;;;22.77;40.87
76827;BME280;65788;52.284;20.890;2023-06-14T00:53:31;100550.54;;;22.73;40.88
76827;BME280;65788;52.284;20.890;2023-06-14T00:56:00;100552.48;;;22.72;40.85
76827;BME280;65788;52.284;20.890;2023-06-14T00:58:27;100551.48;;;22.70;40.84
76827;BME280;65788;52.284;20.890;2023-06-14T01:00:55;100549.69;;;22.67;40.93
76827;BME280;65788;52.284;20.890;2023-06-14T01:03:22;100548.35;;;22.65;40.92
76827;BME280;65788;52.284;20.890;2023-06-14T01:05:54;100548.83;;;22.65;40.93
76827;BME280;65788;52.284;20.890;2023-06-14T01:08:38;100547.92;;;22.63;40.92
76827;BME280;65788;52.284;20.890;2023-06-14T01:11:17;100547.12;;;22.60;41.08
76827;BME280;65788;52.284;20.890;2023-06-14T01:13:46;100547.46;;;22.59;41.03
76827;BME280;65788;52.284;20.890;2023-06-14T01:16:14;100548.98;;;22.59;41.05
76827;BME280;65788;52.284;20.890;2023-06-14T01:18:41;100548.41;;;22.57;41.04
76827;BME280;65788;52.284;20.890;2023-06-14T01:21:23;100545.35;;;22.56;41.05
76827;BME280;65788;52.284;20.890;2023-06-14T01:23:53;100545.43;;;22.55;41.04
76827;BME280;65788;52.284;20.890;2023-06-14T01:26:22;100550.95;;;22.53;41.10
76827;BME280;65788;52.284;20.890;2023-06-14T01:28:50;100549.51;;;22.53;41.09
76827;BME280;65788;52.284;20.890;2023-06-14T01:31:20;100546.20;;;22.51;41.14
76827;BME280;65788;52.284;20.890;2023-06-14T01:33:49;100546.13;;;22.50;41.08
76827;BME280;65788;52.284;20.890;2023-06-14T01:36:18;100545.02;;;22.50;41.06
76827;BME280;65788;52.284;20.890;2023-06-14T01:38:46;100541.41;;;22.49;41.03
76827;BME280;65788;52.284;20.890;2023-06-14T01:41:17;100540.73;;;22.49;41.05
76827;BME280;65788;52.284;20.890;2023-06-14T01:43:46;100538.86;;;22.48;41.09
76827;BME280;65788;52.284;20.890;2023-06-14T01:46:15;100539.13;;;22.47;41.06
76827;BME280;65788;52.284;20.890;2023-06-14T01:48:42;100534.23;;;22.45;41.09
76827;BME280;65788;52.284;20.890;2023-06-14T01:51:09;100537.54;;;22.45;41.09
76827;BME280;65788;52.284;20.890;2023-06-14T01:53:36;100539.59;;;22.45;41.05
76827;BME280;65788;52.284;20.890;2023-06-14T01:56:03;100538.63;;;22.44;41.06
76827;BME280;65788;52.284;20.890;2023-06-14T01:58:30;100544.17;;;22.46;41.00
76827;BME280;65788;52.284;20.890;2023-06-14T02:00:57;100543.52;;;22.44;41.08
76827;BME280;65788;52.284;20.890;2023-06-14T02:03:24;100546.14;;;22.44;41.00
76827;BME280;65788;52.284;20.890;2023-06-14T02:05:51;100539.92;;;22.43;41.05
76827;BME280;65788;52.284;20.890;2023-06-14T02:08:18;100532.56;;;22.43;41.08
76827;BME280;65788;52.284;20.890;2023-06-14T02:10:45;100524.63;;;22.42;41.04
76827;BME280;65788;52.284;20.890;2023-06-14T02:13:11;100520.63;;;22.40;41.07
76827;BME280;65788;52.284;20.890;2023-06-14T02:15:38;100524.43;;;22.38;41.06
76827;BME280;65788;52.284;20.890;2023-06-14T02:18:05;100530.61;;;22.38;41.09
76827;BME280;65788;52.284;20.890;2023-06-14T02:20:32;100529.30;;;22.40;41.07
76827;BME280;65788;52.284;20.890;2023-06-14T02:22:59;100521.55;;;22.39;41.07
76827;BME280;65788;52.284;20.890;2023-06-14T02:25:26;100527.48;;;22.38;41.07
76827;BME280;65788;52.284;20.890;2023-06-14T02:27:54;100532.45;;;22.38;41.11
76827;BME280;65788;52.284;20.890;2023-06-14T02:30:21;100534.59;;;22.39;41.08
76827;BME280;65788;52.284;20.890;2023-06-14T02:32:48;100531.07;;;22.39;41.05
76827;BME280;65788;52.284;20.890;2023-06-14T02:35:17;100526.04;;;22.38;41.05
76827;BME280;65788;52.284;20.890;2023-06-14T02:37:44;100522.92;;;22.36;41.09
76827;BME280;65788;52.284;20.890;2023-06-14T02:40:11;100527.76;;;22.38;41.07
76827;BME280;65788;52.284;20.890;2023-06-14T02:42:38;100526.17;;;22.37;41.09
76827;BME280;65788;52.284;20.890;2023-06-14T02:45:08;100525.45;;;22.35;41.12
76827;BME280;65788;52.284;20.890;2023-06-14T02:47:35;100527.23;;;22.35;41.12
76827;BME280;65788;52.284;20.890;2023-06-14T02:50:02;100526.23;;;22.34;41.13
76827;BME280;65788;52.284;20.890;2023-06-14T02:52:29;100519.64;;;22.33;41.10
76827;BME280;65788;52.284;20.890;2023-06-14T02:54:55;100517.83;;;22.33;41.14
76827;BME280;65788;52.284;20.890;2023-06-14T02:57:22;100517.34;;;22.33;41.19
76827;BME280;65788;52.284;20.890;2023-06-14T02:59:49;100511.02;;;22.33;41.18
76827;BME280;65788;52.284;20.890;2023-06-14T03:02:16;100514.73;;;22.31;41.20
76827;BME280;65788;52.284;20.890;2023-06-14T03:04:43;100510.30;;;22.32;41.20
76827;BME280;65788;52.284;20.890;2023-06-14T03:07:11;100510.25;;;22.31;41.20
76827;BME280;65788;52.284;20.890;2023-06-14T03:09:39;100511.98;;;22.30;41.18
76827;BME280;65788;52.284;20.890;2023-06-14T03:12:07;100512.86;;;22.30;41.21
76827;BME280;65788;52.284;20.890;2023-06-14T03:14:34;100516.06;;;22.29;41.26
76827;BME280;65788;52.284;20.890;2023-06-14T03:17:02;100517.69;;;22.29;41.27
76827;BME280;65788;52.284;20.890;2023-06-14T03:19:29;100511.83;;;22.29;41.30
76827;BME280;65788;52.284;20.890;2023-06-14T03:21:55;100515.53;;;22.30;41.31
76827;BME280;65788;52.284;20.890;2023-06-14T03:24:24;100512.73;;;22.28;41.34
76827;BME280;65788;52.284;20.890;2023-06-14T03:26:54;100515.83;;;22.28;41.33
76827;BME280;65788;52.284;20.890;2023-06-14T03:29:21;100515.92;;;22.30;41.36
76827;BME280;65788;52.284;20.890;2023-06-14T03:32:02;100513.93;;;22.28;41.40
76827;BME280;65788;52.284;20.890;2023-06-14T03:34:29;100516.07;;;22.27;41.39
76827;BME280;65788;52.284;20.890;2023-06-14T03:36:55;100517.33;;;22.28;41.39
76827;BME280;65788;52.284;20.890;2023-06-14T03:39:22;100519.17;;;22.28;41.36
76827;BME280;65788;52.284;20.890;2023-06-14T03:41:49;100518.98;;;22.27;41.40
76827;BME280;65788;52.284;20.890;2023-06-14T03:44:17;100519.64;;;22.27;41.42
76827;BME280;65788;52.284;20.890;2023-06-14T03:46:45;100513.03;;;22.26;41.47
76827;BME280;65788;52.284;20.890;2023-06-14T03:49:13;100514.55;;;22.24;41.49
76827;BME280;65788;52.284;20.890;2023-06-14T03:51:39;100515.83;;;22.24;41.50
76827;BME280;65788;52.284;20.890;2023-06-14T03:54:07;100506.91;;;22.24;41.51
76827;BME280;65788;52.284;20.890;2023-06-14T03:56:34;100503.27;;;22.24;41.51
76827;BME280;65788;52.284;20.890;2023-06-14T03:59:01;100504.21;;;22.24;41.50
76827;BME280;65788;52.284;20.890;2023-06-14T04:01:28;100510.06;;;22.23;41.57
76827;BME280;65788;52.284;20.890;2023-06-14T04:03:56;100514.00;;;22.24;41.63
76827;BME280;65788;52.284;20.890;2023-06-14T04:06:24;100517.66;;;22.26;41.58
76827;BME280;65788;52.284;20.890;2023-06-14T04:08:59;100519.04;;;22.25;41.61
76827;BME280;65788;52.284;20.890;2023-06-14T04:11:30;100524.38;;;22.25;41.73
76827;BME280;65788;52.284;20.890;2023-06-14T04:13:58;100524.61;;;22.23;41.81
76827;BME280;65788;52.284;20.890;2023-06-14T04:16:26;100517.58;;;22.23;41.78
76827;BME280;65788;52.284;20.890;2023-06-14T04:18:54;100517.83;;;22.23;41.78
76827;BME280;65788;52.284;20.890;2023-06-14T04:21:21;100521.44;;;22.23;41.83
76827;BME280;65788;52.284;20.890;2023-06-14T04:23:50;100522.29;;;22.23;41.81
76827;BME280;65788;52.284;20.890;2023-06-14T04:26:19;100523.27;;;22.23;41.81
76827;BME280;65788;52.284;20.890;2023-06-14T04:28:47;100524.65;;;22.23;41.91
76827;BME280;65788;52.284;20.890;2023-06-14T04:31:13;100522.73;;;22.22;41.85
76827;BME280;65788;52.284;20.890;2023-06-14T04:33:40;100522.20;;;22.23;41.93
76827;BME280;65788;52.284;20.890;2023-06-14T04:36:10;100525.13;;;22.23;41.83
76827;BME280;65788;52.284;20.890;2023-06-14T04:38:44;100517.88;;;22.22;41.88
76827;BME280;65788;52.284;20.890;2023-06-14T04:41:12;100519.46;;;22.22;41.87
76827;BME280;65788;52.284;20.890;2023-06-14T04:43:39;100515.84;;;22.20;41.95
76827;BME280;65788;52.284;20.890;2023-06-14T04:46:06;100515.20;;;22.21;41.97
76827;BME280;65788;52.284;20.890;2023-06-14T04:48:40;100512.52;;;22.23;41.99
76827;BME280;65788;52.284;20.890;2023-06-14T04:51:09;100515.03;;;22.21;41.98
76827;BME280;65788;52.284;20.890;2023-06-14T04:53:35;100510.11;;;22.21;42.03
76827;BME280;65788;52.284;20.890;2023-06-14T04:56:03;100511.66;;;22.22;41.96
76827;BME280;65788;52.284;20.890;2023-06-14T04:58:30;100512.73;;;22.22;42.02
76827;BME280;65788;52.284;20.890;2023-06-14T05:00:59;100519.17;;;22.22;42.01
76827;BME280;65788;52.284;20.890;2023-06-14T05:03:25;100518.41;;;22.22;42.00
76827;BME280;65788;52.284;20.890;2023-06-14T05:05:53;100524.34;;;22.23;41.99
76827;BME280;65788;52.284;20.890;2023-06-14T05:08:21;100522.45;;;22.24;42.10
76827;BME280;65788;52.284;20.890;2023-06-14T05:10:50;100529.16;;;22.22;42.09
76827;BME280;65788;52.284;20.890;2023-06-14T05:13:17;100531.54;;;22.24;42.10
76827;BME280;65788;52.284;20.890;2023-06-14T05:15:44;100530.63;;;22.25;42.25
76827;BME280;65788;52.284;20.890;2023-06-14T05:18:11;100532.46;;;22.25;42.53
76827;BME280;65788;52.284;20.890;2023-06-14T05:20:39;100535.33;;;22.26;42.67
76827;BME280;65788;52.284;20.890;2023-06-14T05:23:08;100535.81;;;22.25;42.69
76827;BME280;65788;52.284;20.890;2023-06-14T05:25:35;100532.83;;;22.24;42.73
76827;BME280;65788;52.284;20.890;2023-06-14T05:28:02;100531.50;;;22.24;42.64
76827;BME280;65788;52.284;20.890;2023-06-14T05:30:29;100533.17;;;22.24;42.69
76827;BME280;65788;52.284;20.890;2023-06-14T05:32:57;100538.92;;;22.24;42.65
76827;BME280;65788;52.284;20.890;2023-06-14T05:35:23;100539.58;;;22.22;42.66
76827;BME280;65788;52.284;20.890;2023-06-14T05:37:53;100538.92;;;22.23;42.67
76827;BME280;65788;52.284;20.890;2023-06-14T05:40:20;100541.15;;;22.23;42.72
76827;BME280;65788;52.284;20.890;2023-06-14T05:42:47;100544.20;;;22.22;42.65
76827;BME280;65788;52.284;20.890;2023-06-14T05:45:13;100539.70;;;22.23;42.73
76827;BME280;65788;52.284;20.890;2023-06-14T05:47:42;100536.77;;;22.23;42.72
76827;BME280;65788;52.284;20.890;2023-06-14T05:50:09;100539.90;;;22.24;42.58
76827;BME280;65788;52.284;20.890;2023-06-14T05:52:36;100539.91;;;22.21;42.49
76827;BME280;65788;52.284;20.890;2023-06-14T05:55:04;100540.30;;;22.22;42.61
76827;BME280;65788;52.284;20.890;2023-06-14T05:57:31;100543.12;;;22.23;42.65
76827;BME280;65788;52.284;20.890;2023-06-14T05:59:58;100542.13;;;22.24;42.76
76827;BME280;65788;52.284;20.890;2023-06-14T06:02:25;100541.81;;;22.22;42.71
76827;BME280;65788;52.284;20.890;2023-06-14T06:04:51;100541.36;;;22.24;42.57
76827;BME280;65788;52.284;20.890;2023-06-14T06:07:18;100541.11;;;22.23;42.68
76827;BME280;65788;52.284;20.890;2023-06-14T06:09:45;100540.64;;;22.24;42.92
76827;BME280;65788;52.284;20.890;2023-06-14T06:12:11;100538.96;;;22.24;43.08
76827;BME280;65788;52.284;20.890;2023-06-14T06:14:38;100540.31;;;22.22;43.23
76827;BME280;65788;52.284;20.890;2023-06-14T06:17:05;100540.22;;;22.23;43.15
76827;BME280;65788;52.284;20.890;2023-06-14T06:19:32;100538.39;;;22.21;43.11
76827;BME280;65788;52.284;20.890;2023-06-14T06:21:58;100542.12;;;22.25;42.97
76827;BME280;65788;52.284;20.890;2023-06-14T06:24:25;100540.75;;;22.24;42.97
76827;BME280;65788;52.284;20.890;2023-06-14T06:26:52;100540.27;;;22.25;42.94
76827;BME280;65788;52.284;20.890;2023-06-14T06:29:19;100543.70;;;22.22;43.59
76827;BME280;65788;52.284;20.890;2023-06-14T06:31:46;100545.52;;;22.21;43.99
76827;BME280;65788;52.284;20.890;2023-06-14T06:34:12;100552.34;;;22.21;44.26
76827;BME280;65788;52.284;20.890;2023-06-14T06:36:39;100554.11;;;22.23;44.06
76827;BME280;65788;52.284;20.890;2023-06-14T06:39:06;100554.27;;;22.23;44.05
76827;BME280;65788;52.284;20.890;2023-06-14T06:41:39;100555.54;;;22.25;44.17
76827;BME280;65788;52.284;20.890;2023-06-14T06:44:07;100555.23;;;22.26;44.01
76827;BME280;65788;52.284;20.890;2023-06-14T06:46:33;100558.00;;;22.27;43.88
76827;BME280;65788;52.284;20.890;2023-06-14T06:49:01;100558.34;;;22.27;43.79
76827;BME280;65788;52.284;20.890;2023-06-14T06:51:28;100559.21;;;22.29;43.72
76827;BME280;65788;52.284;20.890;2023-06-14T06:53:55;100557.73;;;22.30;43.73
76827;BME280;65788;52.284;20.890;2023-06-14T06:56:22;100557.36;;;22.29;43.79
76827;BME280;65788;52.284;20.890;2023-06-14T06:58:50;100558.88;;;22.26;44.01
76827;BME280;65788;52.284;20.890;2023-06-14T07:01:17;100560.77;;;22.25;44.20
76827;BME280;65788;52.284;20.890;2023-06-14T07:03:45;100562.17;;;22.41;43.45
76827;BME280;65788;52.284;20.890;2023-06-14T07:06:12;100560.02;;;22.63;42.07
76827;BME280;65788;52.284;20.890;2023-06-14T07:08:39;100564.14;;;22.77;41.60
76827;BME280;65788;52.284;20.890;2023-06-14T07:11:06;100562.02;;;22.86;41.87
76827;BME280;65788;52.284;20.890;2023-06-14T07:13:33;100559.14;;;22.92;41.69
76827;BME280;65788;52.284;20.890;2023-06-14T07:16:00;100557.48;;;22.90;41.66
76827;BME280;65788;52.284;20.890;2023-06-14T07:18:27;100557.66;;;22.83;42.05
76827;BME280;65788;52.284;20.890;2023-06-14T07:20:54;100558.38;;;22.81;41.82
76827;BME280;65788;52.284;20.890;2023-06-14T07:23:20;100556.41;;;22.81;42.02
76827;BME280;65788;52.284;20.890;2023-06-14T07:25:47;100556.02;;;22.81;42.21
76827;BME280;65788;52.284;20.890;2023-06-14T07:28:14;100561.58;;;22.82;42.29
76827;BME280;65788;52.284;20.890;2023-06-14T07:30:41;100563.79;;;22.83;42.14
76827;BME280;65788;52.284;20.890;2023-06-14T07:33:07;100567.84;;;22.85;42.23
76827;BME280;65788;52.284;20.890;2023-06-14T07:35:34;100571.71;;;22.85;42.50
76827;BME280;65788;52.284;20.890;2023-06-14T07:38:01;100575.16;;;22.85;42.52
76827;BME280;65788;52.284;20.890;2023-06-14T07:40:28;100575.73;;;22.86;42.35
76827;BME280;65788;52.284;20.890;2023-06-14T07:42:55;100573.20;;;22.85;42.35
76827;BME280;65788;52.284;20.890;2023-06-14T07:45:21;100571.77;;;22.86;42.51
76827;BME280;65788;52.284;20.890;2023-06-14T07:47:48;100574.52;;;22.86;42.53
76827;BME280;65788;52.284;20.890;2023-06-14T07:50:14;100572.60;;;22.85;42.63
76827;BME280;65788;52.284;20.890;2023-06-14T07:52:41;100575.68;;;22.86;42.49
76827;BME280;65788;52.284;20.890;2023-06-14T07:55:08;100576.48;;;22.87;42.74
76827;BME280;65788;52.284;20.890;2023-06-14T07:57:35;100579.96;;;22.87;42.72
76827;BME280;65788;52.284;20.890;2023-06-14T08:00:03;100578.02;;;22.87;43.00
76827;BME280;65788;52.284;20.890;2023-06-14T08:02:33;100578.65;;;23.02;45.54
76827;BME280;65788;52.284;20.890;2023-06-14T08:05:00;100579.23;;;23.06;42.81
76827;BME280;65788;52.284;20.890;2023-06-14T08:07:26;100577.82;;;23.05;42.75
76827;BME280;65788;52.284;20.890;2023-06-14T08:09:53;100581.55;;;23.05;43.27
76827;BME280;65788;52.284;20.890;2023-06-14T08:12:20;100583.41;;;23.08;42.89
76827;BME280;65788;52.284;20.890;2023-06-14T08:14:46;100583.86;;;23.08;43.15
76827;BME280;65788;52.284;20.890;2023-06-14T08:17:13;100585.39;;;23.07;43.65
76827;BME280;65788;52.284;20.890;2023-06-14T08:19:40;100584.35;;;23.07;43.53
76827;BME280;65788;52.284;20.890;2023-06-14T08:22:07;100581.75;;;23.08;43.73
76827;BME280;65788;52.284;20.890;2023-06-14T08:24:34;100584.92;;;23.09;44.20
76827;BME280;65788;52.284;20.890;2023-06-14T08:27:01;100587.10;;;23.10;45.93
76827;BME280;65788;52.284;20.890;2023-06-14T08:29:28;100583.48;;;23.19;46.61
76827;BME280;65788;52.284;20.890;2023-06-14T08:31:59;100589.09;;;23.12;46.12
76827;BME280;65788;52.284;20.890;2023-06-14T08:34:25;100587.60;;;23.15;45.38
76827;BME280;65788;52.284;20.890;2023-06-14T08:36:53;100593.67;;;23.16;44.63
76827;BME280;65788;52.284;20.890;2023-06-14T08:39:19;100598.21;;;23.17;44.45
76827;BME280;65788;52.284;20.890;2023-06-14T08:41:47;100594.50;;;23.16;44.54
76827;BME280;65788;52.284;20.890;2023-06-14T08:44:17;100594.20;;;23.13;44.81
76827;BME280;65788;52.284;20.890;2023-06-14T08:46:45;100593.16;;;23.16;44.88
76827;BME280;65788;52.284;20.890;2023-06-14T08:49:16;100589.79;;;23.19;44.62
76827;BME280;65788;52.284;20.890;2023-06-14T08:51:43;100590.18;;;23.17;44.37
76827;BME280;65788;52.284;20.890;2023-06-14T08:54:12;100587.34;;;23.19;44.87
76827;BME280;65788;52.284;20.890;2023-06-14T08:56:40;100580.16;;;23.19;44.78
76827;BME280;65788;52.284;20.890;2023-06-14T08:59:08;100577.36;;;23.25;43.96
76827;BME280;65788;52.284;20.890;2023-06-14T09:01:36;100574.86;;;23.36;45.43
76827;BME280;65788;52.284;20.890;2023-06-14T09:04:03;100574.58;;;23.35;45.01
76827;BME280;65788;52.284;20.890;2023-06-14T09:06:32;100573.59;;;23.36;45.04
76827;BME280;65788;52.284;20.890;2023-06-14T09:08:59;100569.68;;;23.42;45.86
76827;BME280;65788;52.284;20.890;2023-06-14T09:11:26;100571.52;;;23.44;45.53
76827;BME280;65788;52.284;20.890;2023-06-14T09:13:53;100569.02;;;23.45;45.44
76827;BME280;65788;52.284;20.890;2023-06-14T09:16:20;100570.42;;;23.48;44.51
76827;BME280;65788;52.284;20.890;2023-06-14T09:18:47;100570.39;;;23.59;44.52
76827;BME280;65788;52.284;20.890;2023-06-14T09:21:15;100578.42;;;23.61;43.92
76827;BME280;65788;52.284;20.890;2023-06-14T09:23:44;100579.16;;;23.59;44.43
76827;BME280;65788;52.284;20.890;2023-06-14T09:26:13;100582.48;;;23.63;45.03
76827;BME280;65788;52.284;20.890;2023-06-14T09:28:47;100585.28;;;23.63;45.35
76827;BME280;65788;52.284;20.890;2023-06-14T09:31:16;100578.95;;;23.59;45.43
76827;BME280;65788;52.284;20.890;2023-06-14T09:33:44;100582.14;;;23.59;45.10
76827;BME280;65788;52.284;20.890;2023-06-14T09:36:18;100583.89;;;23.64;45.29
76827;BME280;65788;52.284;20.890;2023-06-14T09:38:54;100586.02;;;23.64;45.34
76827;BME280;65788;52.284;20.890;2023-06-14T09:41:38;100583.16;;;23.66;44.60
76827;BME280;65788;52.284;20.890;2023-06-14T09:44:07;100585.25;;;23.69;44.14
76827;BME280;65788;52.284;20.890;2023-06-14T09:46:35;100582.23;;;23.69;43.74
76827;BME280;65788;52.284;20.890;2023-06-14T09:49:04;100579.97;;;23.73;43.66
76827;BME280;65788;52.284;20.890;2023-06-14T09:51:30;100583.66;;;23.77;43.38
76827;BME280;65788;52.284;20.890;2023-06-14T09:54:02;100581.86;;;23.77;43.30
76827;BME280;65788;52.284;20.890;2023-06-14T09:56:37;100586.08;;;23.74;43.44
76827;BME280;65788;52.284;20.890;2023-06-14T09:59:09;100588.08;;;23.76;43.27
76827;BME280;65788;52.284;20.890;2023-06-14T10:01:41;100588.27;;;23.77;43.71
76827;BME280;65788;52.284;20.890;2023-06-14T10:04:09;100593.14;;;23.76;44.05
76827;BME280;65788;52.284;20.890;2023-06-14T10:06:38;100592.15;;;23.82;43.99
76827;BME280;65788;52.284;20.890;2023-06-14T10:09:08;100589.69;;;23.79;43.92
76827;BME280;65788;52.284;20.890;2023-06-14T10:11:36;100587.91;;;23.79;43.40
76827;BME280;65788;52.284;20.890;2023-06-14T10:14:07;100582.16;;;23.79;43.52
76827;BME280;65788;52.284;20.890;2023-06-14T10:16:39;100581.20;;;23.79;43.69
76827;BME280;65788;52.284;20.890;2023-06-14T10:19:37;100582.23;;;23.75;43.69
76827;BME280;65788;52.284;20.890;2023-06-14T10:22:29;100578.52;;;23.77;43.63
76827;BME280;65788;52.284;20.890;2023-06-14T10:24:57;100575.64;;;23.78;43.55
76827;BME280;65788;52.284;20.890;2023-06-14T10:27:24;100571.23;;;23.79;43.39
76827;BME280;65788;52.284;20.890;2023-06-14T10:32:21;100571.71;;;23.80;43.23
76827;BME280;65788;52.284;20.890;2023-06-14T10:34:57;100573.01;;;23.81;43.22
76827;BME280;65788;52.284;20.890;2023-06-14T10:37:24;100575.44;;;23.82;43.42
76827;BME280;65788;52.284;20.890;2023-06-14T10:39:51;100575.76;;;23.86;43.01
76827;BME280;65788;52.284;20.890;2023-06-14T10:42:20;100576.39;;;23.88;42.60
76827;BME280;65788;52.284;20.890;2023-06-14T10:44:52;100572.38;;;23.91;42.47
76827;BME280;65788;52.284;20.890;2023-06-14T10:47:34;100570.64;;;23.89;42.56
76827;BME280;65788;52.284;20.890;2023-06-14T10:52:29;100568.89;;;23.91;42.98
76827;BME280;65788;52.284;20.890;2023-06-14T10:55:09;100567.87;;;23.88;42.81
76827;BME280;65788;52.284;20.890;2023-06-14T10:57:44;100565.56;;;23.90;42.76
76827;BME280;65788;52.284;20.890;2023-06-14T11:00:13;100565.39;;;23.87;42.64
76827;BME280;65788;52.284;20.890;2023-06-14T11:05:14;100561.86;;;23.85;42.63
76827;BME280;65788;52.284;20.890;2023-06-14T11:10:39;100562.75;;;23.86;42.06
76827;BME280;65788;52.284;20.890;2023-06-14T11:13:07;100557.71;;;23.76;42.18
76827;BME280;65788;52.284;20.890;2023-06-14T11:15:38;100556.36;;;23.83;41.90
76827;BME280;65788;52.284;20.890;2023-06-14T11:18:06;100552.27;;;23.87;41.75
76827;BME280;65788;52.284;20.890;2023-06-14T11:20:34;100553.31;;;23.87;41.51
76827;BME280;65788;52.284;20.890;2023-06-14T11:23:02;100552.80;;;23.83;41.71
76827;BME280;65788;52.284;20.890;2023-06-14T11:25:29;100554.41;;;23.72;41.93
76827;BME280;65788;52.284;20.890;2023-06-14T11:27:57;100556.80;;;23.66;41.86
76827;BME280;65788;52.284;20.890;2023-06-14T11:30:25;100555.23;;;23.64;41.91
76827;BME280;65788;52.284;20.890;2023-06-14T11:32:55;100554.96;;;23.66;41.73
76827;BME280;65788;52.284;20.890;2023-06-14T11:35:22;100551.14;;;23.66;41.72
76827;BME280;65788;52.284;20.890;2023-06-14T11:37:54;100548.83;;;23.67;41.70
76827;BME280;65788;52.284;20.890;2023-06-14T11:40:26;100555.16;;;23.65;41.76
76827;BME280;65788;52.284;20.890;2023-06-14T11:43:01;100557.29;;;23.60;41.92
76827;BME280;65788;52.284;20.890;2023-06-14T11:45:29;100550.92;;;23.58;41.97
76827;BME280;65788;52.284;20.890;2023-06-14T11:47:58;100550.52;;;23.57;41.96
76827;BME280;65788;52.284;20.890;2023-06-14T11:50:26;100553.48;;;23.63;41.73
76827;BME280;65788;52.284;20.890;2023-06-14T11:52:57;100558.83;;;23.58;41.66
76827;BME280;65788;52.284;20.890;2023-06-14T11:55:24;100547.42;;;23.59;41.24
76827;BME280;65788;52.284;20.890;2023-06-14T11:57:53;100549.24;;;23.66;40.72
76827;BME280;65788;52.284;20.890;2023-06-14T12:00:25;100550.56;;;23.62;40.70
76827;BME280;65788;52.284;20.890;2023-06-14T12:02:53;100549.71;;;23.64;40.68
76827;BME280;65788;52.284;20.890;2023-06-14T12:05:23;100552.55;;;23.66;40.57
76827;BME280;65788;52.284;20.890;2023-06-14T12:07:50;100550.88;;;23.64;40.65
76827;BME280;65788;52.284;20.890;2023-06-14T12:10:26;100548.73;;;23.63;40.52
76827;BME280;65788;52.284;20.890;2023-06-14T12:12:57;100545.55;;;23.66;40.49
76827;BME280;65788;52.284;20.890;2023-06-14T12:15:28;100544.09;;;23.70;40.60
76827;BME280;65788;52.284;20.890;2023-06-14T12:17:57;100541.98;;;23.72;40.81
76827;BME280;65788;52.284;20.890;2023-06-14T12:20:29;100540.98;;;23.71;40.95
76827;BME280;65788;52.284;20.890;2023-06-14T12:22:58;100535.27;;;23.74;40.84
76827;BME280;65788;52.284;20.890;2023-06-14T12:27:59;100540.86;;;23.78;41.15
76827;BME280;65788;52.284;20.890;2023-06-14T12:30:26;100539.17;;;23.87;41.37
76827;BME280;65788;52.284;20.890;2023-06-14T12:32:53;100542.34;;;23.87;41.76
76827;BME280;65788;52.284;20.890;2023-06-14T12:35:19;100542.11;;;23.91;41.99
76827;BME280;65788;52.284;20.890;2023-06-14T12:37:46;100539.84;;;23.90;43.10
76827;BME280;65788;52.284;20.890;2023-06-14T12:40:14;100540.53;;;23.90;43.11
76827;BME280;65788;52.284;20.890;2023-06-14T12:42:40;100539.60;;;23.94;42.38
76827;BME280;65788;52.284;20.890;2023-06-14T12:45:10;100545.62;;;24.01;42.56
76827;BME280;65788;52.284;20.890;2023-06-14T12:47:37;100547.80;;;24.02;42.62
76827;BME280;65788;52.284;20.890;2023-06-14T12:50:04;100548.07;;;23.98;42.11
76827;BME280;65788;52.284;20.890;2023-06-14T12:52:32;100542.98;;;23.93;41.68
76827;BME280;65788;52.284;20.890;2023-06-14T12:55:04;100536.13;;;23.93;41.49
76827;BME280;65788;52.284;20.890;2023-06-14T12:57:31;100532.64;;;23.98;41.45
76827;BME280;65788;52.284;20.890;2023-06-14T12:59:59;100527.84;;;23.97;41.60